sensor_id;sensor_type;location;lat;lon;timestamp;P1;durP1;ratioP1;P2;durP2;ratioP2
1785;SDS011;890;48.158;11.540;2023-06-14T00:01:19;1039.53;;;976.40;;
1785;SDS011;890;48.158;11.540;2023-06-14T00:03:47;1047.30;;;991.73;;
1785;SDS011;890;48.158;11.540;2023-06-14T00:06:13;1049.83;;;989.33;;
1785;SDS011;890;48.158;11.540;2023-06-14T00:08:39;1041.27;;;977.00;;
1785;SDS011;890;48.158;11.540;2023-06-14T00:11:05;1017.90;;;955.00;;
1785;SDS011;890;48.158;11.540;2023-06-14T00:13:31;997.63;;;935.67;;
1785;SDS011;890;48.158;11.540;2023-06-14T00:15:57;777.07;;;743.43;;
1785;SDS011;890;48.158;11.540;2023-06-14T00:18:22;4.43;;;4.03;;
1785;SDS011;890;48.158;11.540;2023-06-14T00:20:54;4.97;;;3.13;;
1785;SDS011;890;48.158;11.540;2023-06-14T00:23:20;9.03;;;8.33;;
1785;SDS011;890;48.158;11.540;2023-06-14T00:25:46;144.67;;;139.47;;
1785;SDS011;890;48.158;11.540;2023-06-14T00:28:12;458.67;;;440.07;;
1785;SDS011;890;48.158;11.540;2023-06-14T00:30:38;290.07;;;278.83;;
1785;SDS011;890;48.158;11.540;2023-06-14T00:33:04;310.10;;;298.60;;
1785;SDS011;890;48.158;11.540;2023-06-14T00:35:30;221.47;;;213.50;;
1785;SDS011;890;48.158;11.540;2023-06-14T00:37:55;185.47;;;178.47;;
1785;SDS011;890;48.158;11.540;2023-06-14T00:40:21;454.47;;;436.07;;
1785;SDS011;890;48.158;11.540;2023-06-14T00:42:47;595.87;;;571.03;;
1785;SDS011;890;48.158;11.540;2023-06-14T00:45:13;743.60;;;710.00;;
1785;SDS011;890;48.158;11.540;2023-06-14T00:47:39;989.70;;;940.63;;
1785;SDS011;890;48.158;11.540;2023-06-14T00:50:06;1025.80;;;973.50;;
1785;SDS011;890;48.158;11.540;2023-06-14T00:52:32;1034.90;;;983.37;;
1785;SDS011;890;48.158;11.540;2023-06-14T00:54:59;1038.97;;;986.07;;
1785;SDS011;890;48.158;11.540;2023-06-14T00:57:25;1028.50;;;973.70;;
1785;SDS011;890;48.158;11.540;2023-06-14T00:59:52;1031.20;;;976.70;;
1785;SDS011;890;48.158;11.540;2023-06-14T01:02:17;1016.23;;;964.13;;
1785;SDS011;890;48.158;11.540;2023-06-14T01:04:44;955.30;;;911.17;;
1785;SDS011;890;48.158;11.540;2023-06-14T01:15:47;755.07;;;722.70;;
1785;SDS011;890;48.158;11.540;2023-06-14T01:18:13;204.30;;;196.53;;
1785;SDS011;890;48.158;11.540;2023-06-14T01:20:45;419.20;;;402.60;;
1785;SDS011;890;48.158;11.540;2023-06-14T01:23:18;387.10;;;371.97;;
1785;SDS011;890;48.158;11.540;2023-06-14T01:25:45;392.97;;;377.07;;
1785;SDS011;890;48.158;11.540;2023-06-14T01:28:12;431.67;;;413.93;;
1785;SDS011;890;48.158;11.540;2023-06-14T01:30:41;501.43;;;480.43;;
1785;SDS011;890;48.158;11.540;2023-06-14T01:33:13;391.43;;;375.60;;
1785;SDS011;890;48.158;11.540;2023-06-14T01:35:43;575.23;;;551.17;;
1785;SDS011;890;48.158;11.540;2023-06-14T01:38:12;604.53;;;578.67;;
1785;SDS011;890;48.158;11.540;2023-06-14T01:40:39;715.63;;;684.93;;
1785;SDS011;890;48.158;11.540;2023-06-14T01:43:07;145.40;;;140.27;;
1785;SDS011;890;48.158;11.540;2023-06-14T01:45:34;726.13;;;694.90;;
1785;SDS011;890;48.158;11.540;2023-06-14T01:48:01;513.90;;;492.70;;
1785;SDS011;890;48.158;11.540;2023-06-14T01:50:28;517.60;;;496.40;;
1785;SDS011;890;48.158;11.540;2023-06-14T01:52:55;598.33;;;573.57;;
1785;SDS011;890;48.158;11.540;2023-06-14T01:55:20;586.07;;;561.53;;
1785;SDS011;890;48.158;11.540;2023-06-14T01:57:46;356.33;;;342.73;;
1785;SDS011;890;48.158;11.540;2023-06-14T02:00:13;222.67;;;213.90;;
1785;SDS011;890;48.158;11.540;2023-06-14T02:02:39;553.33;;;530.67;;
1785;SDS011;890;48.158;11.540;2023-06-14T02:05:05;940.00;;;891.13;;
1785;SDS011;890;48.158;11.540;2023-06-14T02:07:31;897.40;;;858.47;;
1785;SDS011;890;48.158;11.540;2023-06-14T02:09:57;899.37;;;860.10;;
1785;SDS011;890;48.158;11.540;2023-06-14T02:12:22;984.13;;;938.57;;
1785;SDS011;890;48.158;11.540;2023-06-14T02:14:48;972.60;;;929.47;;
1785;SDS011;890;48.158;11.540;2023-06-14T02:17:14;991.03;;;934.43;;
1785;SDS011;890;48.158;11.540;2023-06-14T02:19:40;1006.77;;;949.50;;
1785;SDS011;890;48.158;11.540;2023-06-14T02:22:05;987.73;;;939.87;;
1785;SDS011;890;48.158;11.540;2023-06-14T02:24:31;1004.73;;;956.23;;
1785;SDS011;890;48.158;11.540;2023-06-14T02:26:57;850.53;;;812.80;;
1785;SDS011;890;48.158;11.540;2023-06-14T02:29:22;1014.63;;;956.57;;
1785;SDS011;890;48.158;11.540;2023-06-14T02:31:48;1014.70;;;952.83;;
1785;SDS011;890;48.158;11.540;2023-06-14T02:34:14;999.33;;;937.77;;
1785;SDS011;890;48.158;11.540;2023-06-14T02:36:42;993.10;;;933.07;;
1785;SDS011;890;48.158;11.540;2023-06-14T02:39:08;988.63;;;927.50;;
1785;SDS011;890;48.158;11.540;2023-06-14T02:41:34;999.97;;;940.07;;
1785;SDS011;890;48.158;11.540;2023-06-14T02:44:00;1009.90;;;955.27;;
1785;SDS011;890;48.158;11.540;2023-06-14T02:46:25;979.43;;;920.97;;
1785;SDS011;890;48.158;11.540;2023-06-14T02:48:51;985.70;;;927.83;;
1785;SDS011;890;48.158;11.540;2023-06-14T02:51:17;1009.80;;;953.20;;
1785;SDS011;890;48.158;11.540;2023-06-14T02:53:42;1006.80;;;949.87;;
1785;SDS011;890;48.158;11.540;2023-06-14T02:56:08;999.53;;;943.37;;
1785;SDS011;890;48.158;11.540;2023-06-14T02:58:35;998.30;;;949.77;;
1785;SDS011;890;48.158;11.540;2023-06-14T03:01:01;1003.23;;;950.63;;
1785;SDS011;890;48.158;11.540;2023-06-14T03:03:28;990.20;;;933.53;;
1785;SDS011;890;48.158;11.540;2023-06-14T03:05:53;994.33;;;941.47;;
1785;SDS011;890;48.158;11.540;2023-06-14T03:08:19;977.47;;;918.00;;
1785;SDS011;890;48.158;11.540;2023-06-14T03:10:45;953.13;;;893.03;;
1785;SDS011;890;48.158;11.540;2023-06-14T03:13:11;975.17;;;914.47;;
1785;SDS011;890;48.158;11.540;2023-06-14T03:15:37;987.40;;;931.53;;
1785;SDS011;890;48.158;11.540;2023-06-14T03:18:03;980.00;;;929.83;;
1785;SDS011;890;48.158;11.540;2023-06-14T03:20:29;999.90;;;945.83;;
1785;SDS011;890;48.158;11.540;2023-06-14T03:22:58;982.20;;;921.60;;
1785;SDS011;890;48.158;11.540;2023-06-14T03:25:24;977.97;;;917.60;;
1785;SDS011;890;48.158;11.540;2023-06-14T03:27:50;987.77;;;926.47;;
1785;SDS011;890;48.158;11.540;2023-06-14T03:30:16;971.17;;;913.93;;
1785;SDS011;890;48.158;11.540;2023-06-14T03:32:42;987.10;;;926.53;;
1785;SDS011;890;48.158;11.540;2023-06-14T03:35:07;978.23;;;917.90;;
1785;SDS011;890;48.158;11.540;2023-06-14T03:37:33;969.27;;;908.73;;
1785;SDS011;890;48.158;11.540;2023-06-14T03:39:59;967.27;;;905.47;;
1785;SDS011;890;48.158;11.540;2023-06-14T03:42:25;950.73;;;890.73;;
1785;SDS011;890;48.158;11.540;2023-06-14T03:44:51;973.47;;;913.07;;
1785;SDS011;890;48.158;11.540;2023-06-14T03:47:16;936.60;;;877.73;;
1785;SDS011;890;48.158;11.540;2023-06-14T03:49:42;938.23;;;879.27;;
1785;SDS011;890;48.158;11.540;2023-06-14T03:52:08;929.10;;;870.40;;
1785;SDS011;890;48.158;11.540;2023-06-14T03:54:33;952.60;;;892.50;;
1785;SDS011;890;48.158;11.540;2023-06-14T03:56:59;966.23;;;906.10;;
1785;SDS011;890;48.158;11.540;2023-06-14T03:59:24;964.63;;;904.53;;
1785;SDS011;890;48.158;11.540;2023-06-14T04:01:51;950.93;;;890.93;;
1785;SDS011;890;48.158;11.540;2023-06-14T04:04:16;947.70;;;887.70;;
1785;SDS011;890;48.158;11.540;2023-06-14T04:06:43;951.10;;;890.90;;
1785;SDS011;890;48.158;11.540;2023-06-14T04:09:09;946.30;;;886.30;;
1785;SDS011;890;48.158;11.540;2023-06-14T04:11:34;927.13;;;867.77;;
1785;SDS011;890;48.158;11.540;2023-06-14T04:14:01;922.30;;;864.10;;
1785;SDS011;890;48.158;11.540;2023-06-14T04:16:27;927.10;;;868.70;;
1785;SDS011;890;48.158;11.540;2023-06-14T04:18:54;925.10;;;866.63;;
1785;SDS011;890;48.158;11.540;2023-06-14T04:21:20;916.60;;;858.73;;
1785;SDS011;890;48.158;11.540;2023-06-14T04:23:46;930.10;;;871.33;;
1785;SDS011;890;48.158;11.540;2023-06-14T04:26:11;906.90;;;849.60;;
1785;SDS011;890;48.158;11.540;2023-06-14T04:28:37;926.20;;;867.60;;
1785;SDS011;890;48.158;11.540;2023-06-14T04:31:08;936.20;;;877.40;;
1785;SDS011;890;48.158;11.540;2023-06-14T04:33:37;925.03;;;866.93;;
1785;SDS011;890;48.158;11.540;2023-06-14T04:36:12;919.83;;;861.93;;
1785;SDS011;890;48.158;11.540;2023-06-14T04:38:39;931.43;;;873.03;;
1785;SDS011;890;48.158;11.540;2023-06-14T04:41:06;940.40;;;881.20;;
1785;SDS011;890;48.158;11.540;2023-06-14T04:43:31;932.10;;;873.20;;
1785;SDS011;890;48.158;11.540;2023-06-14T04:46:02;937.50;;;878.23;;
1785;SDS011;890;48.158;11.540;2023-06-14T04:48:31;936.30;;;877.30;;
1785;SDS011;890;48.158;11.540;2023-06-14T04:50:57;938.93;;;879.93;;
1785;SDS011;890;48.158;11.540;2023-06-14T04:53:22;934.63;;;876.57;;
1785;SDS011;890;48.158;11.540;2023-06-14T04:55:48;940.97;;;881.37;;
1785;SDS011;890;48.158;11.540;2023-06-14T04:58:15;955.00;;;895.73;;
1785;SDS011;890;48.158;11.540;2023-06-14T05:00:41;943.80;;;884.93;;
1785;SDS011;890;48.158;11.540;2023-06-14T05:03:08;911.03;;;853.53;;
1785;SDS011;890;48.158;11.540;2023-06-14T05:05:34;932.90;;;874.73;;
1785;SDS011;890;48.158;11.540;2023-06-14T05:08:00;979.03;;;918.33;;
1785;SDS011;890;48.158;11.540;2023-06-14T05:10:25;979.17;;;919.30;;
1785;SDS011;890;48.158;11.540;2023-06-14T05:12:51;982.80;;;922.60;;
1785;SDS011;890;48.158;11.540;2023-06-14T05:15:17;984.00;;;928.03;;
1785;SDS011;890;48.158;11.540;2023-06-14T05:17:45;961.70;;;903.93;;
1785;SDS011;890;48.158;11.540;2023-06-14T05:20:18;895.33;;;857.37;;
1785;SDS011;890;48.158;11.540;2023-06-14T05:22:43;575.57;;;551.97;;
1785;SDS011;890;48.158;11.540;2023-06-14T05:25:09;457.73;;;439.40;;
1785;SDS011;890;48.158;11.540;2023-06-14T05:27:37;481.00;;;462.03;;
1785;SDS011;890;48.158;11.540;2023-06-14T05:30:06;410.63;;;394.40;;
1785;SDS011;890;48.158;11.540;2023-06-14T05:32:32;645.23;;;618.10;;
1785;SDS011;890;48.158;11.540;2023-06-14T05:34:57;197.50;;;190.17;;
1785;SDS011;890;48.158;11.540;2023-06-14T05:37:23;294.10;;;283.07;;
1785;SDS011;890;48.158;11.540;2023-06-14T05:39:48;327.17;;;314.73;;
1785;SDS011;890;48.158;11.540;2023-06-14T05:42:14;727.27;;;696.43;;
1785;SDS011;890;48.158;11.540;2023-06-14T05:44:40;937.60;;;896.73;;
1785;SDS011;890;48.158;11.540;2023-06-14T05:47:05;1010.20;;;963.33;;
1785;SDS011;890;48.158;11.540;2023-06-14T05:49:31;1029.43;;;972.83;;
1785;SDS011;890;48.158;11.540;2023-06-14T05:51:56;1030.33;;;970.23;;
1785;SDS011;890;48.158;11.540;2023-06-14T05:54:22;1023.67;;;965.77;;
1785;SDS011;890;48.158;11.540;2023-06-14T05:56:47;1018.50;;;956.63;;
1785;SDS011;890;48.158;11.540;2023-06-14T05:59:13;1015.83;;;955.13;;
1785;SDS011;890;48.158;11.540;2023-06-14T06:01:39;1005.80;;;943.70;;
1785;SDS011;890;48.158;11.540;2023-06-14T06:04:05;1020.30;;;957.33;;
1785;SDS011;890;48.158;11.540;2023-06-14T06:06:31;1030.47;;;968.20;;
1785;SDS011;890;48.158;11.540;2023-06-14T06:08:57;1043.33;;;979.00;;
1785;SDS011;890;48.158;11.540;2023-06-14T06:11:23;1045.40;;;983.03;;
1785;SDS011;890;48.158;11.540;2023-06-14T06:13:49;1054.23;;;990.10;;
1785;SDS011;890;48.158;11.540;2023-06-14T06:16:15;1070.53;;;999.27;;
1785;SDS011;890;48.158;11.540;2023-06-14T06:18:41;1042.83;;;978.93;;
1785;SDS011;890;48.158;11.540;2023-06-14T06:21:06;1059.30;;;994.60;;
1785;SDS011;890;48.158;11.540;2023-06-14T06:23:32;1079.10;;;999.90;;
1785;SDS011;890;48.158;11.540;2023-06-14T06:25:57;213.97;;;205.77;;
1785;SDS011;890;48.158;11.540;2023-06-14T06:28:23;242.27;;;232.17;;
1785;SDS011;890;48.158;11.540;2023-06-14T06:30:49;828.27;;;789.87;;
1785;SDS011;890;48.158;11.540;2023-06-14T06:33:15;563.40;;;538.50;;
1785;SDS011;890;48.158;11.540;2023-06-14T06:35:41;878.00;;;836.83;;
1785;SDS011;890;48.158;11.540;2023-06-14T06:38:07;779.10;;;743.13;;
1785;SDS011;890;48.158;11.540;2023-06-14T06:40:34;934.93;;;889.70;;
1785;SDS011;890;48.158;11.540;2023-06-14T06:43:01;1093.33;;;999.90;;
1785;SDS011;890;48.158;11.540;2023-06-14T06:45:28;1080.40;;;999.90;;
1785;SDS011;890;48.158;11.540;2023-06-14T06:47:53;1052.60;;;996.17;;
1785;SDS011;890;48.158;11.540;2023-06-14T06:50:20;1110.70;;;999.90;;
1785;SDS011;890;48.158;11.540;2023-06-14T06:52:48;1133.43;;;999.90;;
1785;SDS011;890;48.158;11.540;2023-06-14T06:55:13;1128.43;;;999.90;;
1785;SDS011;890;48.158;11.540;2023-06-14T06:57:39;1132.73;;;999.90;;
1785;SDS011;890;48.158;11.540;2023-06-14T07:00:05;1099.10;;;999.90;;
1785;SDS011;890;48.158;11.540;2023-06-14T07:02:35;1099.10;;;999.90;;
1785;SDS011;890;48.158;11.540;2023-06-14T07:05:01;1114.83;;;999.90;;
1785;SDS011;890;48.158;11.540;2023-06-14T07:07:27;1098.43;;;999.90;;
1785;SDS011;890;48.158;11.540;2023-06-14T07:09:52;1094.80;;;999.90;;
1785;SDS011;890;48.158;11.540;2023-06-14T07:12:18;1108.87;;;999.90;;
1785;SDS011;890;48.158;11.540;2023-06-14T07:14:44;940.87;;;883.30;;
1785;SDS011;890;48.158;11.540;2023-06-14T07:17:09;1110.57;;;999.90;;
1785;SDS011;890;48.158;11.540;2023-06-14T07:19:35;1110.07;;;999.90;;
1785;SDS011;890;48.158;11.540;2023-06-14T07:22:00;1135.90;;;999.90;;
1785;SDS011;890;48.158;11.540;2023-06-14T07:24:26;1126.13;;;999.90;;
1785;SDS011;890;48.158;11.540;2023-06-14T07:26:53;1126.93;;;999.90;;
1785;SDS011;890;48.158;11.540;2023-06-14T07:29:19;1128.70;;;999.90;;
1785;SDS011;890;48.158;11.540;2023-06-14T07:31:46;1129.10;;;999.90;;
1785;SDS011;890;48.158;11.540;2023-06-14T07:34:12;1134.90;;;999.90;;
1785;SDS011;890;48.158;11.540;2023-06-14T07:36:37;1134.93;;;999.90;;
1785;SDS011;890;48.158;11.540;2023-06-14T07:39:03;1127.13;;;999.90;;
1785;SDS011;890;48.158;11.540;2023-06-14T07:41:30;1146.10;;;999.90;;
1785;SDS011;890;48.158;11.540;2023-06-14T07:43:56;1145.83;;;999.90;;
1785;SDS011;890;48.158;11.540;2023-06-14T07:46:22;1131.83;;;999.90;;
1785;SDS011;890;48.158;11.540;2023-06-14T07:48:47;1136.07;;;999.90;;
1785;SDS011;890;48.158;11.540;2023-06-14T07:51:13;1130.80;;;999.90;;
1785;SDS011;890;48.158;11.540;2023-06-14T07:53:39;1133.57;;;999.90;;
1785;SDS011;890;48.158;11.540;2023-06-14T07:56:06;1156.90;;;999.90;;
1785;SDS011;890;48.158;11.540;2023-06-14T07:58:31;1128.37;;;999.90;;
1785;SDS011;890;48.158;11.540;2023-06-14T08:00:57;1129.83;;;999.90;;
1785;SDS011;890;48.158;11.540;2023-06-14T08:03:23;1124.13;;;999.90;;
1785;SDS011;890;48.158;11.540;2023-06-14T08:05:49;1122.93;;;999.90;;
1785;SDS011;890;48.158;11.540;2023-06-14T08:08:15;1132.73;;;999.90;;
1785;SDS011;890;48.158;11.540;2023-06-14T08:10:41;1140.00;;;999.90;;
1785;SDS011;890;48.158;11.540;2023-06-14T08:13:07;1140.23;;;999.90;;
1785;SDS011;890;48.158;11.540;2023-06-14T08:15:34;1144.00;;;999.90;;
1785;SDS011;890;48.158;11.540;2023-06-14T08:17:59;1127.80;;;999.90;;
1785;SDS011;890;48.158;11.540;2023-06-14T08:20:26;1113.77;;;999.90;;
1785;SDS011;890;48.158;11.540;2023-06-14T08:22:51;1136.63;;;999.90;;
1785;SDS011;890;48.158;11.540;2023-06-14T08:25:20;1110.03;;;999.90;;
1785;SDS011;890;48.158;11.540;2023-06-14T08:27:46;1110.77;;;999.90;;
1785;SDS011;890;48.158;11.540;2023-06-14T08:30:11;1118.40;;;999.90;;
1785;SDS011;890;48.158;11.540;2023-06-14T08:32:37;1110.53;;;999.90;;
1785;SDS011;890;48.158;11.540;2023-06-14T08:35:03;1112.63;;;999.90;;
1785;SDS011;890;48.158;11.540;2023-06-14T08:37:30;1131.83;;;999.90;;
1785;SDS011;890;48.158;11.540;2023-06-14T08:39:56;1124.77;;;999.90;;
1785;SDS011;890;48.158;11.540;2023-06-14T08:42:21;1124.17;;;999.90;;
1785;SDS011;890;48.158;11.540;2023-06-14T08:44:49;1126.87;;;999.90;;
1785;SDS011;890;48.158;11.540;2023-06-14T08:47:15;1133.43;;;999.90;;
1785;SDS011;890;48.158;11.540;2023-06-14T08:49:43;1170.47;;;999.90;;
1785;SDS011;890;48.158;11.540;2023-06-14T08:52:12;1136.13;;;999.90;;
1785;SDS011;890;48.158;11.540;2023-06-14T08:54:39;1140.40;;;999.90;;
1785;SDS011;890;48.158;11.540;2023-06-14T08:57:09;1135.87;;;999.90;;
1785;SDS011;890;48.158;11.540;2023-06-14T08:59:37;1143.87;;;999.90;;
1785;SDS011;890;48.158;11.540;2023-06-14T09:02:09;1048.10;;;991.27;;
1785;SDS011;890;48.158;11.540;2023-06-14T09:04:39;26.47;;;25.33;;
1785;SDS011;890;48.158;11.540;2023-06-14T09:07:05;4.67;;;3.77;;
1785;SDS011;890;48.158;11.540;2023-06-14T09:09:31;4.40;;;3.60;;
1785;SDS011;890;48.158;11.540;2023-06-14T09:11:57;4.43;;;3.40;;
1785;SDS011;890;48.158;11.540;2023-06-14T09:14:23;5.90;;;3.57;;
1785;SDS011;890;48.158;11.540;2023-06-14T09:16:53;5.80;;;3.90;;
1785;SDS011;890;48.158;11.540;2023-06-14T09:19:22;3.80;;;3.23;;
1785;SDS011;890;48.158;11.540;2023-06-14T09:21:49;7.87;;;3.77;;
1785;SDS011;890;48.158;11.540;2023-06-14T09:24:17;4.67;;;3.27;;
1785;SDS011;890;48.158;11.540;2023-06-14T09:26:46;3.53;;;3.20;;
1785;SDS011;890;48.158;11.540;2023-06-14T09:29:12;4.67;;;3.80;;
1785;SDS011;890;48.158;11.540;2023-06-14T09:31:37;5.40;;;3.60;;
1785;SDS011;890;48.158;11.540;2023-06-14T09:34:03;5.60;;;3.77;;
1785;SDS011;890;48.158;11.540;2023-06-14T09:36:30;4.30;;;3.53;;
1785;SDS011;890;48.158;11.540;2023-06-14T09:38:57;5.03;;;2.57;;
1785;SDS011;890;48.158;11.540;2023-06-14T09:41:34;7.60;;;3.60;;
1785;SDS011;890;48.158;11.540;2023-06-14T09:44:00;5.27;;;3.83;;
1785;SDS011;890;48.158;11.540;2023-06-14T09:46:28;5.43;;;3.50;;
1785;SDS011;890;48.158;11.540;2023-06-14T09:48:58;3.87;;;3.40;;
1785;SDS011;890;48.158;11.540;2023-06-14T09:51:24;4.47;;;3.77;;
1785;SDS011;890;48.158;11.540;2023-06-14T09:53:51;3.77;;;3.47;;
1785;SDS011;890;48.158;11.540;2023-06-14T09:56:19;8.13;;;3.57;;
1785;SDS011;890;48.158;11.540;2023-06-14T09:58:54;4.77;;;3.43;;
1785;SDS011;890;48.158;11.540;2023-06-14T10:01:21;5.97;;;3.70;;
1785;SDS011;890;48.158;11.540;2023-06-14T10:03:50;6.23;;;4.37;;
1785;SDS011;890;48.158;11.540;2023-06-14T10:06:19;3.37;;;3.07;;
1785;SDS011;890;48.158;11.540;2023-06-14T10:08:49;3.97;;;3.57;;
1785;SDS011;890;48.158;11.540;2023-06-14T10:11:17;4.60;;;3.30;;
1785;SDS011;890;48.158;11.540;2023-06-14T10:13:43;3.40;;;3.10;;
1785;SDS011;890;48.158;11.540;2023-06-14T10:16:10;5.17;;;4.20;;
1785;SDS011;890;48.158;11.540;2023-06-14T10:19:02;6.00;;;4.13;;
1785;SDS011;890;48.158;11.540;2023-06-14T10:24:07;7.33;;;3.57;;
1785;SDS011;890;48.158;11.540;2023-06-14T10:26:39;6.13;;;3.63;;
1785;SDS011;890;48.158;11.540;2023-06-14T10:29:16;4.73;;;4.03;;
1785;SDS011;890;48.158;11.540;2023-06-14T10:31:43;4.43;;;3.90;;
1785;SDS011;890;48.158;11.540;2023-06-14T10:34:31;7.30;;;4.63;;
1785;SDS011;890;48.158;11.540;2023-06-14T10:39:32;7.30;;;4.00;;
1785;SDS011;890;48.158;11.540;2023-06-14T10:42:05;4.90;;;3.50;;
1785;SDS011;890;48.158;11.540;2023-06-14T10:47:04;5.50;;;4.03;;
1785;SDS011;890;48.158;11.540;2023-06-14T10:52:11;6.70;;;4.40;;
1785;SDS011;890;48.158;11.540;2023-06-14T10:57:34;5.00;;;4.33;;
1785;SDS011;890;48.158;11.540;2023-06-14T11:00:01;8.17;;;7.40;;
1785;SDS011;890;48.158;11.540;2023-06-14T11:11:36;7.20;;;4.80;;
1785;SDS011;890;48.158;11.540;2023-06-14T11:14:04;15.70;;;14.60;;
1785;SDS011;890;48.158;11.540;2023-06-14T11:16:30;53.03;;;50.50;;
1785;SDS011;890;48.158;11.540;2023-06-14T11:18:58;312.43;;;296.60;;
1785;SDS011;890;48.158;11.540;2023-06-14T11:21:26;202.50;;;193.13;;
1785;SDS011;890;48.158;11.540;2023-06-14T11:23:56;425.03;;;403.17;;
1785;SDS011;890;48.158;11.540;2023-06-14T11:26:28;607.03;;;572.17;;
1785;SDS011;890;48.158;11.540;2023-06-14T11:28:58;582.47;;;549.17;;
1785;SDS011;890;48.158;11.540;2023-06-14T11:31:25;565.37;;;532.50;;
1785;SDS011;890;48.158;11.540;2023-06-14T11:33:53;680.90;;;640.80;;
1785;SDS011;890;48.158;11.540;2023-06-14T11:36:22;750.23;;;705.27;;
1785;SDS011;890;48.158;11.540;2023-06-14T11:38:57;777.47;;;729.37;;
1785;SDS011;890;48.158;11.540;2023-06-14T11:41:24;741.23;;;697.00;;
1785;SDS011;890;48.158;11.540;2023-06-14T11:43:52;880.07;;;827.23;;
1785;SDS011;890;48.158;11.540;2023-06-14T11:46:19;1037.57;;;982.60;;
1785;SDS011;890;48.158;11.540;2023-06-14T11:48:49;912.80;;;863.00;;
1785;SDS011;890;48.158;11.540;2023-06-14T11:51:14;1013.27;;;951.03;;
1785;SDS011;890;48.158;11.540;2023-06-14T11:53:40;895.73;;;839.17;;
1785;SDS011;890;48.158;11.540;2023-06-14T11:56:08;709.20;;;667.00;;
1785;SDS011;890;48.158;11.540;2023-06-14T11:58:34;992.97;;;938.90;;
1785;SDS011;890;48.158;11.540;2023-06-14T12:00:59;599.67;;;569.77;;
1785;SDS011;890;48.158;11.540;2023-06-14T12:03:26;548.17;;;520.73;;
1785;SDS011;890;48.158;11.540;2023-06-14T12:06:06;647.20;;;614.07;;
1785;SDS011;890;48.158;11.540;2023-06-14T12:08:36;545.10;;;518.17;;
1785;SDS011;890;48.158;11.540;2023-06-14T12:11:10;853.73;;;808.30;;
1785;SDS011;890;48.158;11.540;2023-06-14T12:13:38;1084.70;;;999.90;;
1785;SDS011;890;48.158;11.540;2023-06-14T12:16:07;1034.63;;;978.07;;
1785;SDS011;890;48.158;11.540;2023-06-14T12:18:34;1156.07;;;999.90;;
1785;SDS011;890;48.158;11.540;2023-06-14T12:21:02;1206.83;;;999.90;;
1785;SDS011;890;48.158;11.540;2023-06-14T12:24:05;1188.27;;;999.90;;
1785;SDS011;890;48.158;11.540;2023-06-14T12:26:23;1265.00;;;999.90;;
1785;SDS011;890;48.158;11.540;2023-06-14T12:28:51;1279.43;;;999.90;;
1785;SDS011;890;48.158;11.540;2023-06-14T12:31:17;1324.83;;;999.90;;
1785;SDS011;890;48.158;11.540;2023-06-14T12:33:43;1323.23;;;999.90;;
1785;SDS011;890;48.158;11.540;2023-06-14T12:36:10;1302.93;;;999.90;;
1785;SDS011;890;48.158;11.540;2023-06-14T12:38:36;1297.13;;;999.90;;
1785;SDS011;890;48.158;11.540;2023-06-14T12:41:03;1287.70;;;999.90;;
1785;SDS011;890;48.158;11.540;2023-06-14T12:43:29;1277.37;;;999.90;;
1785;SDS011;890;48.158;11.540;2023-06-14T12:45:54;1272.60;;;999.90;;
1785;SDS011;890;48.158;11.540;2023-06-14T12:48:20;1262.70;;;999.90;;
1785;SDS011;890;48.158;11.540;2023-06-14T12:50:46;1273.07;;;999.90;;
1785;SDS011;890;48.158;11.540;2023-06-14T12:53:12;1277.80;;;999.90;;
1785;SDS011;890;48.158;11.540;2023-06-14T12:55:37;1272.53;;;999.90;;
1785;SDS011;890;48.158;11.540;2023-06-14T12:58:03;1268.40;;;999.90;;
1785;SDS011;890;48.158;11.540;2023-06-14T13:00:29;1263.50;;;999.90;;
1785;SDS011;890;48.158;11.540;2023-06-14T13:02:55;1280.77;;;999.90;;
1785;SDS011;890;48.158;11.540;2023-06-14T13:05:21;1271.30;;;999.90;;
1785;SDS011;890;48.158;11.540;2023-06-14T13:07:48;1267.47;;;999.90;;
1785;SDS011;890;48.158;11.540;2023-06-14T13:10:14;1267.53;;;999.90;;
1785;SDS011;890;48.158;11.540;2023-06-14T13:12:39;1257.33;;;999.90;;
1785;SDS011;890;48.158;11.540;2023-06-14T13:15:05;1254.70;;;999.90;;
1785;SDS011;890;48.158;11.540;2023-06-14T13:17:33;1237.07;;;999.90;;
1785;SDS011;890;48.158;11.540;2023-06-14T13:20:03;1243.33;;;999.90;;
1785;SDS011;890;48.158;11.540;2023-06-14T13:22:30;1231.37;;;999.90;;
1785;SDS011;890;48.158;11.540;2023-06-14T13:24:56;1222.00;;;999.90;;
1785;SDS011;890;48.158;11.540;2023-06-14T13:27:21;1220.60;;;999.90;;
1785;SDS011;890;48.158;11.540;2023-06-14T13:29:48;1222.03;;;999.90;;
1785;SDS011;890;48.158;11.540;2023-06-14T13:32:14;1238.83;;;999.90;;
1785;SDS011;890;48.158;11.540;2023-06-14T13:34:40;1240.73;;;999.90;;
1785;SDS011;890;48.158;11.540;2023-06-14T13:37:05;1227.47;;;999.90;;
1785;SDS011;890;48.158;11.540;2023-06-14T13:39:31;1244.63;;;999.90;;
1785;SDS011;890;48.158;11.540;2023-06-14T13:41:56;1224.57;;;999.90;;
1785;SDS011;890;48.158;11.540;2023-06-14T13:44:22;1240.07;;;999.90;;
1785;SDS011;890;48.158;11.540;2023-06-14T13:46:48;1235.87;;;999.90;;
1785;SDS011;890;48.158;11.540;2023-06-14T13:49:13;1229.67;;;999.90;;
1785;SDS011;890;48.158;11.540;2023-06-14T13:51:39;1225.60;;;999.90;;
1785;SDS011;890;48.158;11.540;2023-06-14T13:54:04;1226.27;;;999.90;;
1785;SDS011;890;48.158;11.540;2023-06-14T13:56:30;1230.17;;;999.90;;
1785;SDS011;890;48.158;11.540;2023-06-14T13:58:56;1221.17;;;999.90;;
1785;SDS011;890;48.158;11.540;2023-06-14T14:01:21;1202.63;;;999.90;;
1785;SDS011;890;48.158;11.540;2023-06-14T14:03:47;1216.13;;;999.90;;
1785;SDS011;890;48.158;11.540;2023-06-14T14:06:14;1217.00;;;999.90;;
1785;SDS011;890;48.158;11.540;2023-06-14T14:08:41;1206.23;;;999.90;;
1785;SDS011;890;48.158;11.540;2023-06-14T14:11:07;1196.47;;;999.90;;
1785;SDS011;890;48.158;11.540;2023-06-14T14:13:33;1199.80;;;999.90;;
1785;SDS011;890;48.158;11.540;2023-06-14T14:16:01;1202.90;;;999.90;;
1785;SDS011;890;48.158;11.540;2023-06-14T14:18:28;1199.27;;;999.90;;
1785;SDS011;890;48.158;11.540;2023-06-14T14:20:54;1185.90;;;999.90;;
1785;SDS011;890;48.158;11.540;2023-06-14T14:23:20;1188.73;;;999.90;;
1785;SDS011;890;48.158;11.540;2023-06-14T14:25:46;1178.53;;;999.90;;
1785;SDS011;890;48.158;11.540;2023-06-14T14:28:12;1211.57;;;999.90;;
1785;SDS011;890;48.158;11.540;2023-06-14T14:30:40;1183.63;;;999.90;;
1785;SDS011;890;48.158;11.540;2023-06-14T14:33:07;1165.30;;;999.90;;
1785;SDS011;890;48.158;11.540;2023-06-14T14:35:32;1183.07;;;999.90;;
1785;SDS011;890;48.158;11.540;2023-06-14T14:37:58;1166.57;;;999.90;;
1785;SDS011;890;48.158;11.540;2023-06-14T14:40:24;1172.30;;;999.90;;
1785;SDS011;890;48.158;11.540;2023-06-14T14:42:49;1177.60;;;999.90;;
1785;SDS011;890;48.158;11.540;2023-06-14T14:45:15;1160.50;;;999.90;;
1785;SDS011;890;48.158;11.540;2023-06-14T14:47:41;1176.33;;;999.90;;
1785;SDS011;890;48.158;11.540;2023-06-14T14:50:06;1178.90;;;999.90;;
1785;SDS011;890;48.158;11.540;2023-06-14T14:52:34;1178.00;;;999.90;;